createdAt,value
2023-05-21T00:01:03.512Z,29.52
2023-05-21T00:03:36.564Z,28.35
2023-05-21T00:06:06.972Z,32.35
2023-05-21T00:08:36.729Z,30.27
2023-05-21T00:11:06.388Z,30.38
2023-05-21T00:13:36.017Z,24.85
2023-05-21T00:16:05.644Z,24.27
2023-05-21T00:18:39.504Z,29.77
2023-05-21T00:21:09.462Z,26.48
2023-05-21T00:23:39.960Z,25.17
2023-05-21T00:26:09.556Z,22.95
2023-05-21T00:28:39.100Z,24.08
2023-05-21T00:31:08.741Z,24.05
2023-05-21T00:33:40.884Z,22.23
2023-05-21T00:36:14.547Z,26.02
2023-05-21T00:38:46.010Z,23.52
2023-05-21T00:41:16.734Z,28.17
2023-05-21T00:43:46.851Z,20.52
2023-05-21T00:46:19.757Z,21.67
2023-05-21T00:48:53.333Z,22.75
2023-05-21T00:51:23.496Z,25.05
2023-05-21T00:53:54.278Z,24.13
2023-05-21T00:56:26.908Z,23.08
2023-05-21T00:58:57.641Z,19.75
2023-05-21T01:01:27.913Z,22.65
2023-05-21T01:04:00.117Z,22.35
2023-05-21T01:06:29.760Z,24.85
2023-05-21T01:09:01.494Z,23.65
2023-05-21T01:11:40.525Z,25.10
2023-05-21T01:14:12.928Z,23.48
2023-05-21T01:16:43.819Z,21.77
2023-05-21T01:19:19.301Z,24.25
2023-05-21T01:21:53.069Z,23.48
2023-05-21T01:24:25.302Z,25.70
2023-05-21T01:26:54.942Z,30.60
2023-05-21T01:29:24.724Z,22.98
2023-05-21T01:32:11.037Z,25.75
2023-05-21T01:34:44.785Z,23.42
2023-05-21T01:37:19.855Z,23.90
2023-05-21T01:39:57.432Z,21.88
2023-05-21T01:42:27.782Z,23.20
2023-05-21T01:45:00.500Z,25.25
2023-05-21T01:47:32.648Z,28.42
2023-05-21T01:50:04.028Z,24.48
2023-05-21T01:52:33.808Z,25.58
2023-05-21T01:55:06.157Z,24.17
2023-05-21T01:57:35.745Z,26.23
2023-05-21T02:00:06.456Z,25.23
2023-05-21T02:02:36.063Z,22.73
2023-05-21T02:05:05.671Z,24.70
2023-05-21T02:07:35.255Z,26.27
2023-05-21T02:10:07.937Z,24.60
2023-05-21T02:12:37.536Z,25.08
2023-05-21T02:15:08.785Z,26.75
2023-05-21T02:17:39.011Z,25.48
2023-05-21T02:20:11.737Z,25.52
2023-05-21T02:22:42.154Z,26.45
2023-05-21T02:25:16.111Z,28.92
2023-05-21T02:27:46.987Z,28.80
2023-05-21T02:30:18.423Z,28.92
2023-05-21T02:32:49.030Z,28.80
2023-05-21T02:35:18.993Z,28.70
2023-05-21T02:37:49.154Z,27.25
2023-05-21T02:40:21.297Z,29.23
2023-05-21T02:42:50.860Z,28.00
2023-05-21T02:45:20.621Z,26.60
2023-05-21T02:47:50.221Z,24.90
2023-05-21T02:50:19.970Z,26.33
2023-05-21T02:52:49.565Z,26.02
2023-05-21T02:55:22.885Z,23.10
2023-05-21T02:57:52.458Z,26.88
2023-05-21T03:00:22.178Z,28.13
2023-05-21T03:02:51.875Z,25.95
2023-05-21T03:05:21.549Z,25.60
2023-05-21T03:07:51.224Z,26.98
2023-05-21T03:10:23.492Z,27.98
2023-05-21T03:12:54.990Z,26.90
2023-05-21T03:15:25.196Z,26.60
2023-05-21T03:17:55.771Z,24.45
2023-05-21T03:20:25.490Z,23.85
2023-05-21T03:22:56.023Z,30.02
2023-05-21T03:25:28.226Z,30.38
2023-05-21T03:27:57.848Z,23.38
2023-05-21T03:30:27.604Z,25.45
2023-05-21T03:32:58.023Z,24.70
2023-05-21T03:35:27.730Z,23.13
2023-05-21T03:37:57.317Z,21.75
2023-05-21T03:40:29.540Z,21.95
2023-05-21T03:42:59.220Z,22.38
2023-05-21T03:45:28.826Z,22.15
2023-05-21T03:47:58.501Z,18.80
2023-05-21T03:50:28.128Z,18.02
2023-05-21T03:52:57.707Z,16.55
2023-05-21T03:55:30.030Z,18.92
2023-05-21T03:57:59.614Z,16.00
2023-05-21T04:00:29.173Z,15.88
2023-05-21T04:02:58.925Z,16.52
2023-05-21T04:05:28.642Z,18.40
2023-05-21T04:07:58.984Z,17.67
2023-05-21T04:10:31.518Z,16.70
2023-05-21T04:13:01.128Z,17.80
2023-05-21T04:15:30.772Z,15.85
2023-05-21T04:18:00.664Z,16.92
2023-05-21T04:20:30.356Z,17.42
2023-05-21T04:22:59.911Z,16.58
2023-05-21T04:25:32.078Z,18.15
2023-05-21T04:28:01.673Z,14.07
2023-05-21T04:30:31.252Z,14.63
2023-05-21T04:33:00.808Z,15.23
2023-05-21T04:35:31.567Z,14.23
2023-05-21T04:38:04.138Z,15.07
2023-05-21T04:40:37.091Z,13.57
2023-05-21T04:43:06.790Z,14.55
2023-05-21T04:45:36.621Z,15.60
2023-05-21T04:48:06.601Z,14.63
2023-05-21T04:50:36.161Z,12.77
2023-05-21T04:53:06.250Z,14.32
2023-05-21T04:55:40.096Z,13.88
2023-05-21T04:58:11.188Z,13.45
2023-05-21T05:00:42.325Z,14.25
2023-05-21T05:03:12.595Z,15.15
2023-05-21T05:05:42.507Z,13.90
2023-05-21T05:08:15.373Z,13.95
2023-05-21T05:13:23.199Z,14.52
2023-05-21T05:15:54.823Z,15.25
2023-05-21T05:18:24.742Z,14.10
2023-05-21T05:20:54.410Z,13.07
2023-05-21T05:23:24.076Z,12.98
2023-05-21T05:25:56.266Z,13.93
2023-05-21T05:28:25.992Z,15.57
2023-05-21T05:30:55.954Z,15.10
2023-05-21T05:33:25.618Z,13.90
2023-05-21T05:35:55.017Z,12.82
2023-05-21T05:38:24.583Z,11.57
2023-05-21T05:40:56.781Z,16.05
2023-05-21T05:43:27.976Z,12.48
2023-05-21T05:45:57.599Z,13.20
2023-05-21T05:48:27.309Z,15.30
2023-05-21T05:50:57.428Z,11.88
2023-05-21T05:53:27.031Z,12.30
2023-05-21T05:56:00.044Z,13.80
2023-05-21T05:58:29.759Z,12.70
2023-05-21T06:00:59.310Z,13.00
2023-05-21T06:03:30.054Z,15.40
2023-05-21T06:05:59.928Z,15.02
2023-05-21T06:08:29.576Z,11.00
2023-05-21T06:11:01.786Z,13.05
2023-05-21T06:13:32.176Z,13.52
2023-05-21T06:16:01.846Z,11.43
2023-05-21T06:18:38.119Z,11.40
2023-05-21T06:21:07.751Z,11.75
2023-05-21T06:23:37.996Z,12.23
2023-05-21T06:26:10.248Z,11.43
2023-05-21T06:28:39.801Z,10.65
2023-05-21T06:31:09.367Z,11.25
2023-05-21T06:33:39.064Z,11.60
2023-05-21T06:36:09.214Z,12.30
2023-05-21T06:38:38.858Z,10.88
2023-05-21T06:41:11.257Z,11.27
2023-05-21T06:43:40.816Z,11.35
2023-05-21T06:46:10.450Z,10.15
2023-05-21T06:48:40.035Z,12.68
2023-05-21T06:51:09.622Z,10.98
2023-05-21T06:53:39.144Z,12.02
2023-05-21T06:56:11.628Z,11.52
2023-05-21T06:58:41.307Z,13.05
2023-05-21T07:01:11.910Z,12.90
2023-05-21T07:03:41.761Z,10.85
2023-05-21T07:06:11.619Z,11.48
2023-05-21T07:08:45.047Z,10.60
2023-05-21T07:11:17.226Z,12.65
2023-05-21T07:13:46.923Z,11.25
2023-05-21T07:16:18.079Z,12.80
2023-05-21T07:18:47.796Z,11.77
2023-05-21T07:21:17.392Z,11.77
2023-05-21T07:23:47.056Z,11.50
2023-05-21T07:26:19.403Z,10.57
2023-05-21T07:28:49.080Z,11.00
2023-05-21T07:31:18.812Z,9.55
2023-05-21T07:36:23.217Z,10.88
2023-05-21T07:38:53.136Z,11.57
2023-05-21T07:41:25.566Z,10.77
2023-05-21T07:43:55.155Z,10.60
2023-05-21T07:46:25.070Z,9.40
2023-05-21T07:48:54.737Z,9.30
2023-05-21T07:51:24.603Z,10.77
2023-05-21T07:53:55.490Z,10.70
2023-05-21T07:56:28.004Z,10.52
2023-05-21T08:01:33.309Z,12.63
2023-05-21T08:04:06.127Z,9.90
2023-05-21T08:06:37.755Z,8.98
2023-05-21T08:09:08.391Z,9.93
2023-05-21T08:11:40.670Z,11.88
2023-05-21T08:14:10.362Z,9.68
2023-05-21T08:16:40.072Z,11.18
2023-05-21T08:19:09.747Z,10.05
2023-05-21T08:21:39.335Z,10.18
2023-05-21T08:24:09.830Z,10.18
2023-05-21T08:26:41.995Z,15.00
2023-05-21T08:29:11.578Z,9.55
2023-05-21T08:31:41.746Z,14.43
2023-05-21T08:34:11.481Z,10.93
2023-05-21T08:36:43.382Z,11.70
2023-05-21T08:39:13.055Z,10.05
2023-05-21T08:41:50.002Z,9.63
2023-05-21T08:44:24.443Z,9.43
2023-05-21T08:46:54.559Z,10.55
2023-05-21T08:49:29.525Z,9.85
2023-05-21T08:52:00.366Z,10.88
2023-05-21T08:54:30.764Z,8.50
2023-05-21T08:57:04.850Z,8.95
2023-05-21T08:59:36.109Z,9.13
2023-05-21T09:02:08.898Z,8.55
2023-05-21T09:04:39.304Z,9.07
2023-05-21T09:07:09.635Z,9.05
2023-05-21T09:09:44.897Z,9.70
2023-05-21T09:12:17.149Z,9.05
2023-05-21T09:14:47.335Z,8.57
2023-05-21T09:17:17.678Z,8.13
2023-05-21T09:20:10.673Z,7.30
2023-05-21T09:22:40.819Z,7.80
2023-05-21T09:25:12.180Z,7.47
2023-05-21T09:27:44.536Z,8.57
2023-05-21T09:30:16.456Z,10.10
2023-05-21T09:32:47.426Z,11.90
2023-05-21T09:35:17.917Z,13.23
2023-05-21T09:37:50.100Z,8.05
2023-05-21T09:40:21.109Z,8.40
2023-05-21T09:42:54.490Z,6.95
2023-05-21T09:45:25.233Z,8.68
2023-05-21T09:47:55.982Z,9.85
2023-05-21T09:50:27.899Z,9.55
2023-05-21T09:52:58.713Z,9.65
2023-05-21T09:55:29.597Z,8.95
2023-05-21T09:58:04.777Z,8.10
2023-05-21T10:00:35.130Z,7.55
2023-05-21T10:03:08.746Z,7.93
2023-05-21T10:05:39.255Z,10.18
2023-05-21T10:08:12.476Z,10.23
2023-05-21T10:10:45.556Z,7.20
2023-05-21T10:13:21.161Z,8.38
2023-05-21T10:16:02.361Z,9.10
2023-05-21T10:18:33.763Z,9.75
2023-05-21T10:21:04.547Z,7.53
2023-05-21T10:23:34.803Z,8.35
2023-05-21T10:26:04.905Z,7.30
2023-05-21T10:28:37.777Z,7.30
2023-05-21T10:31:07.834Z,7.93
2023-05-21T10:33:38.954Z,6.85
2023-05-21T10:36:09.292Z,6.40
2023-05-21T10:38:41.368Z,7.30
2023-05-21T10:41:11.743Z,6.82
2023-05-21T10:43:53.185Z,6.47
2023-05-21T10:46:39.390Z,5.70
2023-05-21T10:49:28.407Z,7.78
2023-05-21T10:52:10.304Z,8.13
2023-05-21T10:55:10.662Z,8.45
2023-05-21T10:57:56.915Z,7.40
2023-05-21T11:00:34.334Z,6.68
2023-05-21T11:03:06.652Z,6.43
2023-05-21T11:05:43.918Z,9.18
2023-05-21T11:08:25.507Z,7.18
2023-05-21T11:10:58.274Z,5.53
2023-05-21T11:13:31.432Z,6.40
2023-05-21T11:16:10.920Z,8.68
2023-05-21T11:19:05.376Z,6.60
2023-05-21T11:21:37.815Z,7.10
2023-05-21T11:24:11.376Z,9.10
2023-05-21T11:27:08.838Z,4.85
2023-05-21T11:29:48.310Z,8.05
2023-05-21T11:32:20.888Z,9.88
2023-05-21T11:34:51.108Z,6.00
2023-05-21T11:37:34.954Z,6.20
2023-05-21T11:40:26.454Z,6.72
2023-05-21T11:42:57.345Z,6.47
2023-05-21T11:45:31.056Z,6.53
2023-05-21T11:48:03.349Z,6.95
2023-05-21T11:50:34.315Z,8.13
2023-05-21T11:53:04.217Z,6.55
2023-05-21T11:55:34.826Z,6.72
2023-05-21T11:58:05.078Z,8.40
2023-05-21T12:00:34.963Z,7.65
2023-05-21T12:03:07.581Z,20.73
2023-05-21T12:05:47.656Z,7.43
2023-05-21T12:08:25.627Z,7.80
2023-05-21T12:10:59.029Z,10.25
2023-05-21T12:13:28.921Z,6.53
2023-05-21T12:15:58.992Z,6.55
2023-05-21T12:18:31.257Z,7.70
2023-05-21T12:21:00.946Z,7.35
2023-05-21T12:23:31.695Z,8.07
2023-05-21T12:26:01.428Z,11.10
2023-05-21T12:28:31.159Z,7.68
2023-05-21T12:31:00.781Z,9.20
2023-05-21T12:33:38.898Z,7.43
2023-05-21T12:36:09.035Z,5.80
2023-05-21T12:38:40.250Z,6.30
2023-05-21T12:41:09.857Z,9.07
2023-05-21T12:43:40.403Z,7.50
2023-05-21T12:46:12.358Z,7.15
2023-05-21T12:48:45.379Z,7.10
2023-05-21T12:51:15.011Z,10.80
2023-05-21T12:53:45.209Z,7.53
2023-05-21T12:56:16.014Z,9.10
2023-05-21T12:58:46.277Z,9.35
2023-05-21T13:01:15.908Z,6.65
2023-05-21T13:03:48.237Z,6.22
2023-05-21T13:06:17.807Z,6.65
2023-05-21T13:08:47.412Z,5.90
2023-05-21T13:11:17.018Z,6.88
2023-05-21T13:13:46.591Z,6.97
2023-05-21T13:16:16.632Z,5.78
2023-05-21T13:18:48.896Z,10.73
2023-05-21T13:21:18.494Z,10.25
2023-05-21T13:23:48.090Z,8.00
2023-05-21T13:26:17.678Z,12.93
2023-05-21T13:28:47.342Z,7.78
2023-05-21T13:31:16.946Z,5.05
2023-05-21T13:33:49.205Z,8.32
2023-05-21T13:36:18.866Z,6.80
2023-05-21T13:38:48.444Z,7.32
2023-05-21T13:41:18.068Z,7.65
2023-05-21T13:43:47.715Z,7.20
2023-05-21T13:46:17.358Z,8.02
2023-05-21T13:48:49.627Z,11.35
2023-05-21T13:51:37.141Z,6.60
2023-05-21T13:54:08.076Z,8.68
2023-05-21T13:56:37.720Z,5.78
2023-05-21T13:59:07.356Z,7.47
2023-05-21T14:01:36.962Z,7.50
2023-05-21T14:04:09.177Z,7.78
2023-05-21T14:06:38.958Z,8.00
2023-05-21T14:09:08.701Z,7.03
2023-05-21T14:11:38.519Z,7.65
2023-05-21T14:14:08.387Z,6.22
2023-05-21T14:16:37.992Z,7.03
2023-05-21T14:19:10.293Z,7.53
2023-05-21T14:21:39.907Z,6.03
2023-05-21T14:24:09.594Z,7.32
2023-05-21T14:26:42.705Z,6.80
2023-05-21T14:29:12.724Z,8.02
2023-05-21T14:31:42.404Z,6.75
2023-05-21T14:34:14.694Z,5.43
2023-05-21T14:36:44.343Z,7.40
2023-05-21T14:39:14.000Z,8.30
2023-05-21T14:41:43.641Z,7.32
2023-05-21T14:44:13.214Z,7.68
2023-05-21T14:46:43.018Z,9.10
2023-05-21T14:49:15.337Z,7.57
2023-05-21T14:51:45.323Z,7.82
2023-05-21T14:54:14.965Z,7.00
2023-05-21T14:56:44.571Z,7.25
2023-05-21T14:59:14.555Z,6.68
2023-05-21T15:01:44.281Z,5.65
2023-05-21T15:04:16.532Z,6.15
2023-05-21T15:06:46.162Z,7.25
2023-05-21T15:09:15.778Z,6.18
2023-05-21T15:11:46.257Z,7.30
2023-05-21T15:14:15.865Z,6.80
2023-05-21T15:16:45.516Z,6.18
2023-05-21T15:19:17.808Z,7.00
2023-05-21T15:21:47.462Z,8.02
2023-05-21T15:24:17.088Z,8.32
2023-05-21T15:26:46.755Z,6.68
2023-05-21T15:29:16.392Z,5.10
2023-05-21T15:31:46.096Z,6.38
2023-05-21T15:34:18.422Z,7.07
2023-05-21T15:36:48.050Z,7.15
2023-05-21T15:39:17.685Z,8.73
2023-05-21T15:41:47.454Z,6.57
2023-05-21T15:44:17.034Z,6.30
2023-05-21T15:46:46.658Z,8.57
2023-05-21T15:49:18.953Z,7.22
2023-05-21T15:51:49.690Z,9.57
2023-05-21T15:54:19.668Z,6.55
2023-05-21T15:56:49.327Z,9.82
2023-05-21T15:59:18.943Z,6.38
2023-05-21T16:01:48.622Z,8.10
2023-05-21T16:04:20.910Z,6.25
2023-05-21T16:06:50.519Z,6.45
2023-05-21T16:09:20.271Z,7.18
2023-05-21T16:11:49.879Z,6.10
2023-05-21T16:14:19.468Z,8.75
2023-05-21T16:16:49.109Z,5.40
2023-05-21T16:19:21.418Z,6.80
2023-05-21T16:21:51.081Z,9.45
2023-05-21T16:24:20.705Z,7.88
2023-05-21T16:26:50.278Z,10.02
2023-05-21T16:29:19.911Z,7.68
2023-05-21T16:31:50.325Z,6.47
2023-05-21T16:34:22.592Z,8.50
2023-05-21T16:36:52.173Z,9.77
2023-05-21T16:39:21.760Z,6.20
2023-05-21T16:41:51.403Z,6.28
2023-05-21T16:44:20.983Z,6.65
2023-05-21T16:46:50.590Z,7.32
2023-05-21T16:49:22.779Z,7.05
2023-05-21T16:51:52.470Z,7.45
2023-05-21T16:54:22.057Z,6.45
2023-05-21T16:56:51.634Z,6.07
2023-05-21T16:59:21.222Z,5.88
2023-05-21T17:01:51.083Z,7.35
2023-05-21T17:04:23.362Z,9.45
2023-05-21T17:06:52.920Z,5.82
2023-05-21T17:09:22.501Z,6.97
2023-05-21T17:11:52.181Z,7.70
2023-05-21T17:14:33.165Z,6.15
2023-05-21T17:17:04.152Z,6.47
2023-05-21T17:19:37.469Z,7.38
2023-05-21T17:22:07.497Z,6.53
2023-05-21T17:24:37.066Z,7.88
2023-05-21T17:27:06.867Z,9.27
2023-05-21T17:29:37.027Z,6.13
2023-05-21T17:32:07.551Z,7.57
2023-05-21T17:34:39.756Z,6.30
2023-05-21T17:37:09.407Z,8.18
2023-05-21T17:39:39.032Z,7.03
2023-05-21T17:42:09.085Z,7.13
2023-05-21T17:44:38.770Z,6.80
2023-05-21T17:47:09.870Z,8.20
2023-05-21T17:49:42.114Z,7.57
2023-05-21T17:52:11.751Z,6.05
2023-05-21T17:54:42.456Z,8.48
2023-05-21T17:57:12.212Z,6.13
2023-05-21T17:59:45.246Z,6.40
2023-05-21T18:02:16.091Z,6.25
2023-05-21T18:04:48.290Z,6.47
2023-05-21T18:07:18.017Z,6.95
2023-05-21T18:09:47.989Z,9.55
2023-05-21T18:12:17.612Z,7.63
2023-05-21T18:14:47.267Z,8.10
2023-05-21T18:17:16.934Z,7.63
2023-05-21T18:19:49.135Z,6.03
2023-05-21T18:22:18.970Z,8.90
2023-05-21T18:24:48.562Z,8.75
2023-05-21T18:27:18.437Z,5.97
2023-05-21T18:29:49.341Z,7.15
2023-05-21T18:32:19.165Z,7.85
2023-05-21T18:34:51.394Z,7.50
2023-05-21T18:37:21.766Z,8.85
2023-05-21T18:39:51.311Z,9.05
2023-05-21T18:42:20.930Z,7.97
2023-05-21T18:44:54.067Z,9.50
2023-05-21T18:47:24.574Z,9.23
2023-05-21T18:49:56.800Z,7.90
2023-05-21T18:52:26.385Z,7.55
2023-05-21T18:54:56.767Z,6.68
2023-05-21T18:57:26.401Z,7.38
2023-05-21T18:59:56.164Z,7.20
2023-05-21T19:02:27.132Z,9.43
2023-05-21T19:04:59.722Z,8.27
2023-05-21T19:07:29.614Z,7.60
2023-05-21T19:10:00.376Z,6.78
2023-05-21T19:12:31.549Z,6.45
2023-05-21T19:15:01.350Z,7.53
2023-05-21T19:17:31.202Z,6.68
2023-05-21T19:20:05.506Z,6.63
2023-05-21T19:22:37.177Z,6.47
2023-05-21T19:25:07.510Z,9.00
2023-05-21T19:27:37.083Z,7.47
2023-05-21T19:30:07.222Z,8.05
2023-05-21T19:32:36.893Z,7.95
2023-05-21T19:35:11.530Z,7.38
2023-05-21T19:37:41.349Z,8.15
2023-05-21T19:40:12.498Z,7.97
2023-05-21T19:42:42.830Z,8.65
2023-05-21T19:45:13.515Z,7.10
2023-05-21T19:47:43.402Z,9.45
2023-05-21T19:50:15.785Z,11.70
2023-05-21T19:52:45.380Z,9.07
2023-05-21T19:55:20.505Z,8.43
2023-05-21T19:57:50.232Z,8.95
2023-05-21T20:00:20.413Z,9.68
2023-05-21T20:02:50.043Z,6.97
2023-05-21T20:05:22.321Z,13.43
2023-05-21T20:07:51.892Z,8.48
2023-05-21T20:10:21.631Z,6.95
2023-05-21T20:12:51.264Z,8.80
2023-05-21T20:15:22.973Z,7.88
2023-05-21T20:17:52.928Z,10.23
2023-05-21T20:20:26.881Z,10.13
2023-05-21T20:22:56.976Z,7.50
2023-05-21T20:25:26.624Z,13.50
2023-05-21T20:27:56.886Z,9.32
2023-05-21T20:30:26.495Z,8.70
2023-05-21T20:32:57.586Z,9.70
2023-05-21T20:35:29.863Z,7.10
2023-05-21T20:38:02.586Z,8.50
2023-05-21T20:40:32.166Z,9.25
2023-05-21T20:43:02.018Z,10.55
2023-05-21T20:45:33.678Z,7.68
2023-05-21T20:48:04.584Z,8.32
2023-05-21T20:50:37.886Z,9.10
2023-05-21T20:53:07.694Z,9.20
2023-05-21T20:55:37.507Z,9.95
2023-05-21T20:58:07.934Z,7.97
2023-05-21T21:00:38.833Z,7.88
2023-05-21T21:03:10.702Z,11.52
2023-05-21T21:05:43.007Z,12.85
2023-05-21T21:08:12.822Z,10.25
2023-05-21T21:10:42.935Z,10.02
2023-05-21T21:13:12.520Z,8.40
2023-05-21T21:15:44.155Z,8.68
2023-05-21T21:18:14.832Z,8.35
2023-05-21T21:20:49.911Z,7.43
2023-05-21T21:23:19.670Z,8.30
2023-05-21T21:25:49.379Z,8.18
2023-05-21T21:28:18.991Z,6.13
2023-05-21T21:30:48.873Z,8.63
2023-05-21T21:33:18.529Z,10.50
2023-05-21T21:35:51.544Z,8.57
2023-05-21T21:38:21.136Z,8.57
2023-05-21T21:40:50.725Z,8.75
2023-05-21T21:43:20.377Z,12.18
2023-05-21T21:45:49.999Z,6.10
2023-05-21T21:48:19.670Z,10.60
2023-05-21T21:50:51.917Z,10.35
2023-05-21T21:53:22.148Z,10.30
2023-05-21T21:55:51.799Z,10.13
2023-05-21T21:58:21.419Z,7.93
2023-05-21T22:00:51.458Z,7.70
2023-05-21T22:03:22.196Z,7.15
2023-05-21T22:05:55.224Z,8.98
2023-05-21T22:08:25.579Z,10.38
2023-05-21T22:10:55.332Z,7.43
2023-05-21T22:13:24.921Z,7.22
2023-05-21T22:15:55.225Z,8.90
2023-05-21T22:18:39.362Z,6.68
2023-05-21T22:21:14.574Z,7.00
2023-05-21T22:23:44.250Z,7.63
2023-05-21T22:26:13.830Z,10.32
2023-05-21T22:28:43.388Z,6.45
2023-05-21T22:31:13.061Z,8.23
2023-05-21T22:33:42.700Z,9.00
2023-05-21T22:36:15.090Z,7.97
2023-05-21T22:38:44.702Z,7.10
2023-05-21T22:41:14.549Z,8.48
2023-05-21T22:43:44.175Z,9.82
2023-05-21T22:46:13.798Z,8.48
2023-05-21T22:48:44.191Z,10.32
2023-05-21T22:51:16.415Z,8.27
2023-05-21T22:53:46.024Z,12.00
2023-05-21T22:56:15.654Z,8.52
2023-05-21T22:58:45.323Z,8.00
2023-05-21T23:01:15.144Z,7.80
2023-05-21T23:03:44.776Z,8.52
2023-05-21T23:06:17.008Z,7.97
2023-05-21T23:08:46.605Z,11.77
2023-05-21T23:11:16.205Z,8.82
2023-05-21T23:13:45.769Z,11.27
2023-05-21T23:16:15.407Z,9.13
2023-05-21T23:18:44.998Z,10.57
2023-05-21T23:21:17.358Z,9.02
2023-05-21T23:23:47.045Z,8.25
2023-05-21T23:26:16.897Z,7.75
2023-05-21T23:28:46.436Z,8.77
2023-05-21T23:31:16.030Z,8.95
2023-05-21T23:33:45.629Z,8.63
2023-05-21T23:36:17.928Z,9.18
2023-05-21T23:38:47.539Z,10.82
2023-05-21T23:41:17.258Z,8.15
2023-05-21T23:43:46.868Z,9.35
2023-05-21T23:46:16.486Z,8.65
2023-05-21T23:48:46.097Z,10.07
2023-05-21T23:51:19.458Z,8.70
2023-05-21T23:53:49.309Z,6.15
2023-05-21T23:56:18.991Z,12.25
2023-05-21T23:58:48.546Z,8.60
